sensor_id;sensor_type;location;lat;lon;timestamp;pressure;altitude;pressure_sealevel;temperature;humidity
76137;BME280;68622;53.128;17.966;2023-07-24T00:00:27;100334.89;;;18.88;49.55
76137;BME280;68622;53.128;17.966;2023-07-24T00:03:13;100337.77;;;18.88;50.04
76137;BME280;68622;53.128;17.966;2023-07-24T00:05:40;100332.43;;;18.84;50.02
76137;BME280;68622;53.128;17.966;2023-07-24T00:08:06;100332.88;;;18.81;50.71
76137;BME280;68622;53.128;17.966;2023-07-24T00:10:33;100334.35;;;18.75;51.69
76137;BME280;68622;53.128;17.966;2023-07-24T00:13:00;100339.95;;;18.67;51.93
76137;BME280;68622;53.128;17.966;2023-07-24T00:15:27;100339.34;;;18.58;52.20
76137;BME280;68622;53.128;17.966;2023-07-24T00:17:54;100343.41;;;18.51;51.87
76137;BME280;68622;53.128;17.966;2023-07-24T00:20:20;100341.73;;;18.45;51.97
76137;BME280;68622;53.128;17.966;2023-07-24T00:22:47;100336.04;;;18.41;52.37
76137;BME280;68622;53.128;17.966;2023-07-24T00:25:13;100330.91;;;18.38;52.21
76137;BME280;68622;53.128;17.966;2023-07-24T00:27:40;100329.76;;;18.33;52.35
76137;BME280;68622;53.128;17.966;2023-07-24T00:30:08;100330.75;;;18.29;52.39
76137;BME280;68622;53.128;17.966;2023-07-24T00:32:34;100334.74;;;18.27;52.23
76137;BME280;68622;53.128;17.966;2023-07-24T00:35:02;100338.48;;;18.25;52.01
76137;BME280;68622;53.128;17.966;2023-07-24T00:37:29;100337.45;;;18.24;51.99
76137;BME280;68622;53.128;17.966;2023-07-24T00:39:56;100337.80;;;18.22;51.66
76137;BME280;68622;53.128;17.966;2023-07-24T00:42:24;100342.01;;;18.21;51.82
76137;BME280;68622;53.128;17.966;2023-07-24T00:44:50;100340.61;;;18.19;51.85
76137;BME280;68622;53.128;17.966;2023-07-24T00:47:17;100337.36;;;18.18;51.72
76137;BME280;68622;53.128;17.966;2023-07-24T00:49:46;100336.63;;;18.17;51.99
76137;BME280;68622;53.128;17.966;2023-07-24T00:52:14;100337.55;;;18.15;51.95
76137;BME280;68622;53.128;17.966;2023-07-24T00:54:43;100336.49;;;18.13;52.09
76137;BME280;68622;53.128;17.966;2023-07-24T00:57:10;100334.77;;;18.10;51.87
76137;BME280;68622;53.128;17.966;2023-07-24T00:59:36;100332.98;;;18.07;51.98
76137;BME280;68622;53.128;17.966;2023-07-24T01:02:03;100335.31;;;18.06;51.97
76137;BME280;68622;53.128;17.966;2023-07-24T01:04:30;100340.64;;;18.04;51.72
76137;BME280;68622;53.128;17.966;2023-07-24T01:06:58;100342.60;;;18.02;51.77
76137;BME280;68622;53.128;17.966;2023-07-24T01:09:24;100345.67;;;18.01;51.80
76137;BME280;68622;53.128;17.966;2023-07-24T01:14:56;100343.88;;;18.00;51.79
76137;BME280;68622;53.128;17.966;2023-07-24T01:17:25;100337.92;;;18.00;51.89
76137;BME280;68622;53.128;17.966;2023-07-24T01:19:55;100337.55;;;17.99;51.85
76137;BME280;68622;53.128;17.966;2023-07-24T01:25:09;100331.73;;;17.94;52.31
76137;BME280;68622;53.128;17.966;2023-07-24T01:27:42;100329.04;;;17.90;52.83
76137;BME280;68622;53.128;17.966;2023-07-24T01:30:09;100327.56;;;17.87;52.81
76137;BME280;68622;53.128;17.966;2023-07-24T01:32:37;100330.80;;;17.83;53.41
76137;BME280;68622;53.128;17.966;2023-07-24T01:35:05;100329.54;;;17.79;54.36
76137;BME280;68622;53.128;17.966;2023-07-24T01:37:34;100330.42;;;17.75;54.68
76137;BME280;68622;53.128;17.966;2023-07-24T01:40:02;100327.91;;;17.73;54.21
76137;BME280;68622;53.128;17.966;2023-07-24T01:42:29;100317.95;;;17.74;54.78
76137;BME280;68622;53.128;17.966;2023-07-24T01:44:55;100317.44;;;17.74;55.25
76137;BME280;68622;53.128;17.966;2023-07-24T01:47:22;100318.59;;;17.73;55.23
76137;BME280;68622;53.128;17.966;2023-07-24T01:49:49;100320.23;;;17.71;55.15
76137;BME280;68622;53.128;17.966;2023-07-24T01:52:15;100316.44;;;17.68;55.34
76137;BME280;68622;53.128;17.966;2023-07-24T01:54:42;100315.80;;;17.63;55.21
76137;BME280;68622;53.128;17.966;2023-07-24T01:57:09;100315.56;;;17.59;55.34
76137;BME280;68622;53.128;17.966;2023-07-24T01:59:35;100324.23;;;17.54;56.13
76137;BME280;68622;53.128;17.966;2023-07-24T02:02:02;100328.61;;;17.49;56.45
76137;BME280;68622;53.128;17.966;2023-07-24T02:04:29;100331.02;;;17.42;57.88
76137;BME280;68622;53.128;17.966;2023-07-24T02:06:55;100334.05;;;17.34;57.62
76137;BME280;68622;53.128;17.966;2023-07-24T02:09:22;100328.02;;;17.29;56.39
76137;BME280;68622;53.128;17.966;2023-07-24T02:11:49;100329.88;;;17.24;55.94
76137;BME280;68622;53.128;17.966;2023-07-24T02:14:17;100325.90;;;17.20;55.69
76137;BME280;68622;53.128;17.966;2023-07-24T02:16:44;100321.70;;;17.15;55.69
76137;BME280;68622;53.128;17.966;2023-07-24T02:19:11;100319.41;;;17.13;55.88
76137;BME280;68622;53.128;17.966;2023-07-24T02:21:38;100321.02;;;17.09;55.81
76137;BME280;68622;53.128;17.966;2023-07-24T02:24:04;100326.70;;;17.06;55.85
76137;BME280;68622;53.128;17.966;2023-07-24T02:26:31;100325.36;;;17.02;55.71
76137;BME280;68622;53.128;17.966;2023-07-24T02:28:58;100321.77;;;17.00;55.59
76137;BME280;68622;53.128;17.966;2023-07-24T02:31:25;100322.45;;;16.99;55.39
76137;BME280;68622;53.128;17.966;2023-07-24T02:33:52;100321.60;;;16.99;55.43
76137;BME280;68622;53.128;17.966;2023-07-24T02:36:19;100322.28;;;16.99;55.12
76137;BME280;68622;53.128;17.966;2023-07-24T02:38:46;100319.73;;;17.00;55.08
76137;BME280;68622;53.128;17.966;2023-07-24T02:41:12;100319.55;;;17.02;55.07
76137;BME280;68622;53.128;17.966;2023-07-24T02:43:39;100316.79;;;17.05;55.26
76137;BME280;68622;53.128;17.966;2023-07-24T02:46:06;100315.64;;;17.09;55.46
76137;BME280;68622;53.128;17.966;2023-07-24T02:48:32;100317.66;;;17.12;55.50
76137;BME280;68622;53.128;17.966;2023-07-24T02:50:59;100315.06;;;17.16;55.44
76137;BME280;68622;53.128;17.966;2023-07-24T02:53:25;100315.77;;;17.20;55.24
76137;BME280;68622;53.128;17.966;2023-07-24T02:55:52;100306.55;;;17.26;55.05
76137;BME280;68622;53.128;17.966;2023-07-24T02:58:18;100303.83;;;17.32;54.87
76137;BME280;68622;53.128;17.966;2023-07-24T03:00:45;100306.27;;;17.39;54.87
76137;BME280;68622;53.128;17.966;2023-07-24T03:03:12;100302.59;;;17.45;54.57
76137;BME280;68622;53.128;17.966;2023-07-24T03:05:38;100295.63;;;17.50;54.87
76137;BME280;68622;53.128;17.966;2023-07-24T03:08:05;100296.68;;;17.54;54.65
76137;BME280;68622;53.128;17.966;2023-07-24T03:10:31;100295.56;;;17.58;56.16
76137;BME280;68622;53.128;17.966;2023-07-24T03:12:58;100299.09;;;17.58;56.56
76137;BME280;68622;53.128;17.966;2023-07-24T03:15:25;100306.09;;;17.56;56.99
76137;BME280;68622;53.128;17.966;2023-07-24T03:17:52;100310.35;;;17.57;56.53
76137;BME280;68622;53.128;17.966;2023-07-24T03:20:19;100310.17;;;17.60;56.66
76137;BME280;68622;53.128;17.966;2023-07-24T03:22:47;100317.56;;;17.66;56.24
76137;BME280;68622;53.128;17.966;2023-07-24T03:25:13;100317.75;;;17.72;55.86
76137;BME280;68622;53.128;17.966;2023-07-24T03:27:40;100310.54;;;17.78;55.50
76137;BME280;68622;53.128;17.966;2023-07-24T03:30:07;100309.85;;;17.85;55.09
76137;BME280;68622;53.128;17.966;2023-07-24T03:32:36;100312.00;;;17.92;54.94
76137;BME280;68622;53.128;17.966;2023-07-24T03:35:04;100312.65;;;17.98;54.70
76137;BME280;68622;53.128;17.966;2023-07-24T03:37:31;100316.16;;;18.03;54.59
76137;BME280;68622;53.128;17.966;2023-07-24T03:39:58;100314.81;;;18.04;54.46
76137;BME280;68622;53.128;17.966;2023-07-24T03:42:29;100310.05;;;18.10;54.35
76137;BME280;68622;53.128;17.966;2023-07-24T03:44:57;100305.61;;;18.12;54.50
76137;BME280;68622;53.128;17.966;2023-07-24T03:47:24;100305.40;;;18.16;54.72
76137;BME280;68622;53.128;17.966;2023-07-24T03:49:51;100306.06;;;18.19;54.45
76137;BME280;68622;53.128;17.966;2023-07-24T03:52:17;100306.14;;;18.27;54.37
76137;BME280;68622;53.128;17.966;2023-07-24T03:54:44;100304.42;;;18.35;54.21
76137;BME280;68622;53.128;17.966;2023-07-24T03:57:10;100304.34;;;18.41;54.12
76137;BME280;68622;53.128;17.966;2023-07-24T03:59:37;100301.84;;;18.45;54.14
76137;BME280;68622;53.128;17.966;2023-07-24T04:02:04;100307.71;;;18.51;54.08
76137;BME280;68622;53.128;17.966;2023-07-24T04:04:31;100305.03;;;18.56;54.17
76137;BME280;68622;53.128;17.966;2023-07-24T04:06:58;100305.05;;;18.61;53.98
76137;BME280;68622;53.128;17.966;2023-07-24T04:09:25;100309.58;;;18.63;54.10
76137;BME280;68622;53.128;17.966;2023-07-24T04:11:51;100306.89;;;18.61;54.23
76137;BME280;68622;53.128;17.966;2023-07-24T04:14:18;100305.73;;;18.68;53.97
76137;BME280;68622;53.128;17.966;2023-07-24T04:16:44;100306.45;;;18.71;53.88
76137;BME280;68622;53.128;17.966;2023-07-24T04:19:11;100309.41;;;18.76;53.72
76137;BME280;68622;53.128;17.966;2023-07-24T04:21:38;100300.71;;;18.81;53.59
76137;BME280;68622;53.128;17.966;2023-07-24T04:24:04;100301.99;;;18.87;53.68
76137;BME280;68622;53.128;17.966;2023-07-24T04:26:31;100299.80;;;18.92;53.79
76137;BME280;68622;53.128;17.966;2023-07-24T04:28:58;100304.54;;;18.99;53.75
76137;BME280;68622;53.128;17.966;2023-07-24T04:31:24;100305.95;;;19.04;53.63
76137;BME280;68622;53.128;17.966;2023-07-24T04:33:51;100306.34;;;19.07;53.56
76137;BME280;68622;53.128;17.966;2023-07-24T04:36:17;100309.58;;;19.10;53.69
76137;BME280;68622;53.128;17.966;2023-07-24T04:38:44;100311.98;;;19.08;53.69
76137;BME280;68622;53.128;17.966;2023-07-24T04:41:12;100308.89;;;19.05;53.91
76137;BME280;68622;53.128;17.966;2023-07-24T04:43:39;100306.58;;;19.10;53.62
76137;BME280;68622;53.128;17.966;2023-07-24T04:46:06;100307.20;;;19.13;53.75
76137;BME280;68622;53.128;17.966;2023-07-24T04:48:32;100307.61;;;19.18;53.57
76137;BME280;68622;53.128;17.966;2023-07-24T04:50:59;100304.40;;;19.20;53.89
76137;BME280;68622;53.128;17.966;2023-07-24T04:53:26;100300.80;;;19.24;53.97
76137;BME280;68622;53.128;17.966;2023-07-24T04:55:52;100301.83;;;19.28;53.92
76137;BME280;68622;53.128;17.966;2023-07-24T04:58:19;100302.59;;;19.32;53.65
76137;BME280;68622;53.128;17.966;2023-07-24T05:00:45;100310.11;;;19.37;54.08
76137;BME280;68622;53.128;17.966;2023-07-24T05:03:12;100313.19;;;19.43;54.04
76137;BME280;68622;53.128;17.966;2023-07-24T05:05:38;100310.98;;;19.47;54.04
76137;BME280;68622;53.128;17.966;2023-07-24T05:08:05;100308.84;;;19.54;53.92
76137;BME280;68622;53.128;17.966;2023-07-24T05:10:36;100308.23;;;19.63;53.95
76137;BME280;68622;53.128;17.966;2023-07-24T05:13:02;100307.58;;;19.74;53.73
76137;BME280;68622;53.128;17.966;2023-07-24T05:15:29;100306.55;;;19.84;53.71
76137;BME280;68622;53.128;17.966;2023-07-24T05:17:56;100311.41;;;19.94;53.49
76137;BME280;68622;53.128;17.966;2023-07-24T05:20:22;100311.75;;;20.02;53.27
76137;BME280;68622;53.128;17.966;2023-07-24T05:22:49;100312.05;;;20.06;53.20
76137;BME280;68622;53.128;17.966;2023-07-24T05:25:15;100315.96;;;20.12;53.05
76137;BME280;68622;53.128;17.966;2023-07-24T05:27:42;100312.77;;;20.20;52.91
76137;BME280;68622;53.128;17.966;2023-07-24T05:30:09;100309.46;;;20.31;52.79
76137;BME280;68622;53.128;17.966;2023-07-24T05:32:35;100310.60;;;20.36;52.89
76137;BME280;68622;53.128;17.966;2023-07-24T05:35:02;100309.77;;;20.44;52.76
76137;BME280;68622;53.128;17.966;2023-07-24T05:37:28;100310.95;;;20.55;52.73
76137;BME280;68622;53.128;17.966;2023-07-24T05:39:55;100313.66;;;20.58;52.99
76137;BME280;68622;53.128;17.966;2023-07-24T05:42:22;100313.31;;;20.49;54.42
76137;BME280;68622;53.128;17.966;2023-07-24T05:44:48;100314.84;;;20.47;54.33
76137;BME280;68622;53.128;17.966;2023-07-24T05:47:15;100315.61;;;20.35;55.47
76137;BME280;68622;53.128;17.966;2023-07-24T05:49:41;100317.77;;;20.37;55.42
76137;BME280;68622;53.128;17.966;2023-07-24T05:52:08;100324.45;;;20.30;57.41
76137;BME280;68622;53.128;17.966;2023-07-24T05:54:35;100332.48;;;20.21;57.71
76137;BME280;68622;53.128;17.966;2023-07-24T05:57:01;100338.77;;;20.12;58.65
76137;BME280;68622;53.128;17.966;2023-07-24T05:59:28;100343.86;;;20.00;59.95
76137;BME280;68622;53.128;17.966;2023-07-24T06:01:54;100345.41;;;19.99;60.35
76137;BME280;68622;53.128;17.966;2023-07-24T06:04:21;100345.87;;;19.91;61.15
76137;BME280;68622;53.128;17.966;2023-07-24T06:06:47;100346.98;;;19.90;61.64
76137;BME280;68622;53.128;17.966;2023-07-24T06:09:14;100340.34;;;19.87;62.86
76137;BME280;68622;53.128;17.966;2023-07-24T06:11:41;100340.91;;;19.84;63.05
76137;BME280;68622;53.128;17.966;2023-07-24T06:14:07;100333.48;;;19.86;62.26
76137;BME280;68622;53.128;17.966;2023-07-24T06:16:34;100338.64;;;19.88;63.84
76137;BME280;68622;53.128;17.966;2023-07-24T06:19:01;100331.09;;;19.87;64.39
76137;BME280;68622;53.128;17.966;2023-07-24T06:21:27;100333.08;;;19.90;64.40
76137;BME280;68622;53.128;17.966;2023-07-24T06:23:54;100327.94;;;19.94;65.10
76137;BME280;68622;53.128;17.966;2023-07-24T06:26:21;100325.12;;;20.07;63.09
76137;BME280;68622;53.128;17.966;2023-07-24T06:28:47;100325.95;;;20.18;63.88
76137;BME280;68622;53.128;17.966;2023-07-24T06:31:14;100322.71;;;20.26;63.49
76137;BME280;68622;53.128;17.966;2023-07-24T06:33:40;100320.80;;;20.31;63.36
76137;BME280;68622;53.128;17.966;2023-07-24T06:36:10;100318.94;;;20.35;63.84
76137;BME280;68622;53.128;17.966;2023-07-24T06:38:37;100306.48;;;20.38;64.57
76137;BME280;68622;53.128;17.966;2023-07-24T06:41:03;100293.77;;;20.47;63.46
76137;BME280;68622;53.128;17.966;2023-07-24T06:43:30;100287.15;;;20.56;63.95
76137;BME280;68622;53.128;17.966;2023-07-24T06:45:56;100286.38;;;20.64;63.67
76137;BME280;68622;53.128;17.966;2023-07-24T06:48:23;100276.30;;;20.77;62.43
76137;BME280;68622;53.128;17.966;2023-07-24T06:50:50;100273.02;;;20.89;62.37
76137;BME280;68622;53.128;17.966;2023-07-24T06:53:16;100266.88;;;20.94;61.76
76137;BME280;68622;53.128;17.966;2023-07-24T06:55:43;100275.27;;;20.94;62.89
76137;BME280;68622;53.128;17.966;2023-07-24T06:58:09;100270.34;;;21.01;63.07
76137;BME280;68622;53.128;17.966;2023-07-24T07:00:36;100266.11;;;21.21;62.06
76137;BME280;68622;53.128;17.966;2023-07-24T07:03:02;100263.60;;;21.25;62.38
76137;BME280;68622;53.128;17.966;2023-07-24T07:05:31;100267.30;;;21.26;62.33
76137;BME280;68622;53.128;17.966;2023-07-24T07:07:58;100267.23;;;21.23;62.01
76137;BME280;68622;53.128;17.966;2023-07-24T07:10:25;100265.50;;;21.46;61.83
76137;BME280;68622;53.128;17.966;2023-07-24T07:12:51;100260.29;;;21.57;61.33
76137;BME280;68622;53.128;17.966;2023-07-24T07:15:18;100261.96;;;21.68;61.27
76137;BME280;68622;53.128;17.966;2023-07-24T07:17:44;100262.17;;;21.80;61.87
76137;BME280;68622;53.128;17.966;2023-07-24T07:20:11;100258.92;;;21.87;61.45
76137;BME280;68622;53.128;17.966;2023-07-24T07:22:37;100252.36;;;21.87;60.51
76137;BME280;68622;53.128;17.966;2023-07-24T07:25:04;100248.06;;;21.82;61.30
76137;BME280;68622;53.128;17.966;2023-07-24T07:27:31;100245.60;;;21.82;61.64
76137;BME280;68622;53.128;17.966;2023-07-24T07:29:57;100245.16;;;21.86;61.84
76137;BME280;68622;53.128;17.966;2023-07-24T07:32:24;100249.04;;;21.93;62.05
76137;BME280;68622;53.128;17.966;2023-07-24T07:34:51;100248.45;;;22.05;60.81
76137;BME280;68622;53.128;17.966;2023-07-24T07:37:17;100241.73;;;22.04;60.83
76137;BME280;68622;53.128;17.966;2023-07-24T07:39:44;100236.41;;;22.12;60.93
76137;BME280;68622;53.128;17.966;2023-07-24T07:42:10;100234.35;;;22.27;61.07
76137;BME280;68622;53.128;17.966;2023-07-24T07:44:37;100234.63;;;22.53;61.23
76137;BME280;68622;53.128;17.966;2023-07-24T07:47:04;100230.10;;;22.78;59.55
76137;BME280;68622;53.128;17.966;2023-07-24T07:49:30;100229.86;;;22.91;59.31
76137;BME280;68622;53.128;17.966;2023-07-24T07:51:57;100223.84;;;23.03;59.40
76137;BME280;68622;53.128;17.966;2023-07-24T07:54:23;100222.88;;;23.11;58.60
76137;BME280;68622;53.128;17.966;2023-07-24T07:56:50;100220.96;;;23.15;58.07
76137;BME280;68622;53.128;17.966;2023-07-24T07:59:16;100214.58;;;23.28;57.81
76137;BME280;68622;53.128;17.966;2023-07-24T08:01:43;100211.42;;;23.48;57.98
76137;BME280;68622;53.128;17.966;2023-07-24T08:04:11;100203.21;;;23.63;57.37
76137;BME280;68622;53.128;17.966;2023-07-24T08:06:38;100200.08;;;23.77;56.57
76137;BME280;68622;53.128;17.966;2023-07-24T08:09:04;100196.15;;;23.96;56.83
76137;BME280;68622;53.128;17.966;2023-07-24T08:11:31;100198.77;;;24.10;56.34
76137;BME280;68622;53.128;17.966;2023-07-24T08:13:58;100193.62;;;24.34;56.12
76137;BME280;68622;53.128;17.966;2023-07-24T08:16:24;100189.88;;;24.59;55.00
76137;BME280;68622;53.128;17.966;2023-07-24T08:18:51;100184.55;;;24.61;54.66
76137;BME280;68622;53.128;17.966;2023-07-24T08:21:17;100178.61;;;24.63;53.91
76137;BME280;68622;53.128;17.966;2023-07-24T08:23:44;100177.39;;;24.76;52.96
76137;BME280;68622;53.128;17.966;2023-07-24T08:26:13;100175.70;;;24.89;51.78
76137;BME280;68622;53.128;17.966;2023-07-24T08:28:41;100174.11;;;24.95;51.03
76137;BME280;68622;53.128;17.966;2023-07-24T08:31:12;100167.96;;;25.11;51.19
76137;BME280;68622;53.128;17.966;2023-07-24T08:33:39;100167.27;;;25.32;51.55
76137;BME280;68622;53.128;17.966;2023-07-24T08:36:07;100158.59;;;25.39;49.18
76137;BME280;68622;53.128;17.966;2023-07-24T08:38:38;100154.42;;;25.43;48.14
76137;BME280;68622;53.128;17.966;2023-07-24T08:41:07;100150.73;;;25.38;47.97
76137;BME280;68622;53.128;17.966;2023-07-24T08:43:35;100149.67;;;24.92;47.51
76137;BME280;68622;53.128;17.966;2023-07-24T08:46:04;100145.96;;;25.16;47.53
76137;BME280;68622;53.128;17.966;2023-07-24T08:48:38;100146.67;;;25.14;46.68
76137;BME280;68622;53.128;17.966;2023-07-24T08:51:08;100155.20;;;25.11;47.07
76137;BME280;68622;53.128;17.966;2023-07-24T08:53:36;100151.23;;;25.14;46.93
76137;BME280;68622;53.128;17.966;2023-07-24T08:56:05;100143.29;;;25.20;46.61
76137;BME280;68622;53.128;17.966;2023-07-24T08:58:33;100146.48;;;25.42;47.08
76137;BME280;68622;53.128;17.966;2023-07-24T09:01:01;100146.23;;;25.57;46.61
76137;BME280;68622;53.128;17.966;2023-07-24T09:03:28;100139.17;;;25.73;46.56
76137;BME280;68622;53.128;17.966;2023-07-24T09:05:56;100139.41;;;25.88;46.00
76137;BME280;68622;53.128;17.966;2023-07-24T09:11:01;100132.35;;;25.92;45.27
76137;BME280;68622;53.128;17.966;2023-07-24T09:13:29;100133.39;;;26.09;45.72
76137;BME280;68622;53.128;17.966;2023-07-24T09:15:56;100132.36;;;25.98;45.27
76137;BME280;68622;53.128;17.966;2023-07-24T09:18:23;100133.86;;;25.89;45.45
76137;BME280;68622;53.128;17.966;2023-07-24T09:20:49;100127.98;;;25.78;45.74
76137;BME280;68622;53.128;17.966;2023-07-24T09:23:25;100124.05;;;25.93;45.87
76137;BME280;68622;53.128;17.966;2023-07-24T09:25:53;100119.09;;;25.93;45.37
76137;BME280;68622;53.128;17.966;2023-07-24T09:28:20;100123.50;;;25.87;45.37
76137;BME280;68622;53.128;17.966;2023-07-24T09:30:56;100126.80;;;25.86;45.70
76137;BME280;68622;53.128;17.966;2023-07-24T09:33:43;100123.23;;;26.02;45.47
76137;BME280;68622;53.128;17.966;2023-07-24T09:36:12;100124.02;;;25.90;44.77
76137;BME280;68622;53.128;17.966;2023-07-24T09:38:40;100115.91;;;26.06;44.77
76137;BME280;68622;53.128;17.966;2023-07-24T09:41:07;100111.09;;;26.13;44.40
76137;BME280;68622;53.128;17.966;2023-07-24T09:43:34;100104.42;;;26.51;43.97
76137;BME280;68622;53.128;17.966;2023-07-24T09:46:05;100103.09;;;26.64;43.26
76137;BME280;68622;53.128;17.966;2023-07-24T09:48:33;100106.51;;;26.80;43.04
76137;BME280;68622;53.128;17.966;2023-07-24T09:51:01;100111.22;;;26.88;42.27
76137;BME280;68622;53.128;17.966;2023-07-24T09:53:43;100110.66;;;26.91;42.10
76137;BME280;68622;53.128;17.966;2023-07-24T09:56:10;100109.15;;;27.23;41.89
76137;BME280;68622;53.128;17.966;2023-07-24T09:58:39;100098.11;;;27.16;41.43
76137;BME280;68622;53.128;17.966;2023-07-24T10:01:09;100097.15;;;27.26;41.55
76137;BME280;68622;53.128;17.966;2023-07-24T10:03:44;100093.66;;;27.21;41.36
76137;BME280;68622;53.128;17.966;2023-07-24T10:06:11;100086.66;;;27.44;41.14
76137;BME280;68622;53.128;17.966;2023-07-24T10:08:39;100080.36;;;27.59;40.79
76137;BME280;68622;53.128;17.966;2023-07-24T10:11:08;100078.42;;;27.70;40.85
76137;BME280;68622;53.128;17.966;2023-07-24T10:13:36;100077.27;;;28.01;40.81
76137;BME280;68622;53.128;17.966;2023-07-24T10:16:04;100068.09;;;27.83;39.85
76137;BME280;68622;53.128;17.966;2023-07-24T10:18:40;100061.84;;;28.12;40.10
76137;BME280;68622;53.128;17.966;2023-07-24T10:21:09;100059.80;;;28.11;39.57
76137;BME280;68622;53.128;17.966;2023-07-24T10:23:46;100053.38;;;28.09;39.57
76137;BME280;68622;53.128;17.966;2023-07-24T10:26:24;100045.15;;;28.10;39.41
76137;BME280;68622;53.128;17.966;2023-07-24T10:28:52;100040.06;;;28.20;39.19
76137;BME280;68622;53.128;17.966;2023-07-24T10:31:21;100032.54;;;28.48;38.78
76137;BME280;68622;53.128;17.966;2023-07-24T10:33:48;100038.02;;;28.69;38.74
76137;BME280;68622;53.128;17.966;2023-07-24T10:36:19;100037.21;;;28.67;38.12
76137;BME280;68622;53.128;17.966;2023-07-24T10:38:51;100033.92;;;28.30;37.52
76137;BME280;68622;53.128;17.966;2023-07-24T10:41:19;100038.31;;;28.27;38.48
76137;BME280;68622;53.128;17.966;2023-07-24T10:43:48;100035.80;;;28.46;38.05
76137;BME280;68622;53.128;17.966;2023-07-24T10:46:19;100036.20;;;28.53;38.06
76137;BME280;68622;53.128;17.966;2023-07-24T10:48:49;100027.94;;;28.72;37.43
76137;BME280;68622;53.128;17.966;2023-07-24T10:51:17;100023.27;;;28.82;37.19
76137;BME280;68622;53.128;17.966;2023-07-24T10:53:45;100032.02;;;28.70;37.35
76137;BME280;68622;53.128;17.966;2023-07-24T10:56:13;100026.25;;;28.69;37.11
76137;BME280;68622;53.128;17.966;2023-07-24T10:58:40;100027.45;;;28.74;36.79
76137;BME280;68622;53.128;17.966;2023-07-24T11:01:07;100019.20;;;28.86;36.72
76137;BME280;68622;53.128;17.966;2023-07-24T11:03:36;100021.72;;;28.83;37.45
76137;BME280;68622;53.128;17.966;2023-07-24T11:06:03;100016.50;;;28.98;37.63
76137;BME280;68622;53.128;17.966;2023-07-24T11:08:30;100016.65;;;29.13;37.10
76137;BME280;68622;53.128;17.966;2023-07-24T11:10:58;100013.80;;;29.01;36.80
76137;BME280;68622;53.128;17.966;2023-07-24T11:13:27;100013.92;;;28.67;37.25
76137;BME280;68622;53.128;17.966;2023-07-24T11:15:55;100011.11;;;29.01;36.85
76137;BME280;68622;53.128;17.966;2023-07-24T11:18:22;100005.88;;;29.00;36.41
76137;BME280;68622;53.128;17.966;2023-07-24T11:20:53;99999.23;;;29.22;36.54
76137;BME280;68622;53.128;17.966;2023-07-24T11:23:22;99994.57;;;29.22;35.97
76137;BME280;68622;53.128;17.966;2023-07-24T11:25:53;100001.06;;;29.22;35.81
76137;BME280;68622;53.128;17.966;2023-07-24T11:28:20;100001.52;;;29.20;35.41
76137;BME280;68622;53.128;17.966;2023-07-24T11:30:47;99999.08;;;29.24;35.63
76137;BME280;68622;53.128;17.966;2023-07-24T11:33:15;99998.64;;;29.23;35.19
76137;BME280;68622;53.128;17.966;2023-07-24T11:35:42;100000.35;;;29.28;35.20
76137;BME280;68622;53.128;17.966;2023-07-24T11:38:10;99999.38;;;29.30;35.35
76137;BME280;68622;53.128;17.966;2023-07-24T11:40:38;99997.20;;;29.50;35.05
76137;BME280;68622;53.128;17.966;2023-07-24T11:43:15;99990.77;;;29.59;34.63
76137;BME280;68622;53.128;17.966;2023-07-24T11:45:46;99999.61;;;29.60;34.65
76137;BME280;68622;53.128;17.966;2023-07-24T11:48:24;99996.52;;;29.78;34.88
76137;BME280;68622;53.128;17.966;2023-07-24T11:50:53;100000.23;;;29.79;34.09
76137;BME280;68622;53.128;17.966;2023-07-24T11:53:31;99986.86;;;29.71;34.05
76137;BME280;68622;53.128;17.966;2023-07-24T11:56:01;99970.64;;;29.77;33.64
76137;BME280;68622;53.128;17.966;2023-07-24T11:58:39;99975.06;;;30.03;34.00
76137;BME280;68622;53.128;17.966;2023-07-24T12:01:05;99979.64;;;30.20;33.69
76137;BME280;68622;53.128;17.966;2023-07-24T12:03:32;99978.21;;;30.34;33.33
76137;BME280;68622;53.128;17.966;2023-07-24T12:05:59;99971.64;;;30.02;33.06
76137;BME280;68622;53.128;17.966;2023-07-24T12:08:35;99967.22;;;30.23;33.34
76137;BME280;68622;53.128;17.966;2023-07-24T12:11:02;99968.70;;;30.25;33.62
76137;BME280;68622;53.128;17.966;2023-07-24T12:13:29;99965.61;;;30.23;33.21
76137;BME280;68622;53.128;17.966;2023-07-24T12:15:55;99965.95;;;30.26;33.53
76137;BME280;68622;53.128;17.966;2023-07-24T12:18:22;99964.90;;;30.40;32.95
76137;BME280;68622;53.128;17.966;2023-07-24T12:20:49;99962.83;;;30.37;32.88
76137;BME280;68622;53.128;17.966;2023-07-24T12:23:16;99960.14;;;30.39;33.34
76137;BME280;68622;53.128;17.966;2023-07-24T12:25:47;99954.61;;;30.20;33.17
76137;BME280;68622;53.128;17.966;2023-07-24T12:28:14;99950.87;;;30.42;33.15
76137;BME280;68622;53.128;17.966;2023-07-24T12:30:40;99945.94;;;30.46;33.14
76137;BME280;68622;53.128;17.966;2023-07-24T12:33:07;99946.98;;;30.44;33.17
76137;BME280;68622;53.128;17.966;2023-07-24T12:35:34;99938.55;;;30.49;32.55
76137;BME280;68622;53.128;17.966;2023-07-24T12:38:00;99936.80;;;30.35;32.45
76137;BME280;68622;53.128;17.966;2023-07-24T12:40:27;99932.36;;;30.47;32.88
76137;BME280;68622;53.128;17.966;2023-07-24T12:42:53;99930.16;;;30.40;32.98
76137;BME280;68622;53.128;17.966;2023-07-24T12:45:20;99925.37;;;30.41;32.81
76137;BME280;68622;53.128;17.966;2023-07-24T12:47:46;99926.71;;;30.37;32.38
76137;BME280;68622;53.128;17.966;2023-07-24T12:50:13;99923.65;;;30.26;32.60